createdAt,value
2019-03-04T00:02:20.668Z,96.82
2019-03-04T00:07:24.175Z,95.96
2019-03-04T00:12:27.601Z,96.09
2019-03-04T00:17:31.110Z,95.30
2019-03-04T00:22:34.544Z,93.75
2019-03-04T00:27:38.000Z,93.22
2019-03-04T00:32:41.427Z,93.12
2019-03-04T00:37:44.858Z,90.34
2019-03-04T00:42:48.308Z,89.76
2019-03-04T00:47:51.739Z,89.38
2019-03-04T00:52:55.197Z,90.51
2019-03-04T00:57:58.626Z,90.42
2019-03-04T01:03:02.134Z,89.51
2019-03-04T01:08:05.565Z,89.25
2019-03-04T01:13:08.988Z,89.38
2019-03-04T01:18:12.399Z,88.45
2019-03-04T01:23:15.822Z,87.50
2019-03-04T01:28:19.347Z,87.90
2019-03-04T01:33:22.807Z,87.39
2019-03-04T01:38:26.225Z,88.31
2019-03-04T01:43:29.970Z,89.04
2019-03-04T01:48:33.412Z,88.45
2019-03-04T01:53:36.869Z,88.08
2019-03-04T01:58:40.317Z,87.73
2019-03-04T02:03:43.747Z,89.65
2019-03-04T02:08:47.226Z,89.08
2019-03-04T02:13:51.403Z,89.00
2019-03-04T02:18:54.920Z,88.50
2019-03-04T02:24:01.402Z,88.16
2019-03-04T02:29:04.810Z,87.71
2019-03-04T02:34:08.235Z,88.28
2019-03-04T02:39:11.742Z,88.79
2019-03-04T02:44:15.211Z,87.67
2019-03-04T02:49:18.641Z,85.59
2019-03-04T02:54:22.058Z,86.37
2019-03-04T02:59:25.473Z,85.44
2019-03-04T03:04:28.970Z,84.59
2019-03-04T03:09:32.392Z,84.17
2019-03-04T03:14:35.832Z,83.86
2019-03-04T03:19:39.270Z,82.96
2019-03-04T03:24:42.695Z,83.05
2019-03-04T03:29:46.145Z,83.61
2019-03-04T03:34:49.569Z,83.62
2019-03-04T03:39:53.008Z,83.85
2019-03-04T03:44:56.413Z,84.92
2019-03-04T03:49:59.866Z,84.91
2019-03-04T03:55:03.678Z,84.19
2019-03-04T04:00:16.078Z,83.26
2019-03-04T04:05:19.514Z,83.12
2019-03-04T04:10:23.023Z,80.46
2019-03-04T04:15:27.389Z,79.96
2019-03-04T04:20:31.034Z,80.04
2019-03-04T04:25:34.459Z,76.81
2019-03-04T04:30:38.928Z,76.58
2019-03-04T04:35:42.407Z,76.33
2019-03-04T04:40:45.880Z,73.88
2019-03-04T04:45:49.300Z,72.58
2019-03-04T04:50:52.745Z,72.99
2019-03-04T04:55:56.178Z,72.00
2019-03-04T05:00:59.587Z,71.25
2019-03-04T05:06:03.070Z,71.56
2019-03-04T05:11:06.580Z,71.56
2019-03-04T05:16:10.011Z,71.89
2019-03-04T05:21:13.435Z,70.78
2019-03-04T05:26:16.879Z,71.03
2019-03-04T05:31:20.283Z,69.98
2019-03-04T05:36:23.715Z,68.28
2019-03-04T05:41:27.124Z,69.50
2019-03-04T05:46:30.597Z,68.49
2019-03-04T05:51:34.018Z,68.37
2019-03-04T05:56:37.509Z,68.38
2019-03-04T06:01:40.955Z,68.73
2019-03-04T06:06:48.464Z,68.77
2019-03-04T06:11:51.925Z,69.28
2019-03-04T06:16:55.438Z,69.07
2019-03-04T06:21:58.878Z,69.63
2019-03-04T06:27:02.295Z,69.61
2019-03-04T06:32:05.782Z,69.48
2019-03-04T06:37:09.641Z,69.42
2019-03-04T06:42:13.047Z,69.45
2019-03-04T06:47:16.478Z,67.63
2019-03-04T06:52:19.887Z,68.18
2019-03-04T06:57:28.605Z,75.04
2019-03-04T07:02:37.773Z,72.08
2019-03-04T07:07:41.210Z,73.12
2019-03-04T07:12:44.709Z,86.08
2019-03-04T07:17:48.265Z,87.63
2019-03-04T07:22:51.680Z,91.56
2019-03-04T07:27:55.153Z,96.07
2019-03-04T07:32:58.572Z,94.77
2019-03-04T07:38:22.854Z,96.30
2019-03-04T07:43:26.270Z,96.11
2019-03-04T07:48:29.685Z,91.82
2019-03-04T07:53:33.217Z,94.85
2019-03-04T07:58:36.717Z,88.25
2019-03-04T08:03:40.131Z,85.98
2019-03-04T08:09:03.409Z,88.47
2019-03-04T08:14:12.536Z,86.45
2019-03-04T08:19:15.952Z,85.29
2019-03-04T08:24:19.363Z,84.17
2019-03-04T08:29:22.843Z,83.97
2019-03-04T08:34:31.070Z,85.24
2019-03-04T08:39:31.401Z,81.87
2019-03-04T08:44:34.803Z,82.26
2019-03-04T08:49:38.394Z,78.39
2019-03-04T08:54:41.833Z,75.38
2019-03-04T08:59:45.260Z,75.57
2019-03-04T09:04:48.690Z,74.82
2019-03-04T09:09:52.140Z,76.46
2019-03-04T09:14:55.502Z,78.25
2019-03-04T09:19:58.932Z,78.37
2019-03-04T09:25:02.382Z,83.89
2019-03-04T09:30:08.850Z,83.91
2019-03-04T09:35:16.748Z,78.73
2019-03-04T09:40:36.380Z,74.03
2019-03-04T09:45:39.796Z,72.86
2019-03-04T09:50:43.330Z,67.24
2019-03-04T09:55:46.807Z,66.51
2019-03-04T10:00:55.907Z,63.94
2019-03-04T10:06:11.092Z,62.06
2019-03-04T10:11:29.604Z,58.97
2019-03-04T10:16:47.590Z,58.15
2019-03-04T10:21:56.772Z,58.28
2019-03-04T10:27:21.338Z,62.19
2019-03-04T10:32:53.395Z,62.53
2019-03-04T10:38:22.286Z,67.71
2019-03-04T10:43:40.641Z,70.87
2019-03-04T10:48:44.144Z,75.21
2019-03-04T10:53:47.572Z,81.31
2019-03-04T10:58:51.032Z,85.92
2019-03-04T11:03:54.436Z,90.84
2019-03-04T11:08:57.893Z,91.45
2019-03-04T11:14:01.322Z,93.68
2019-03-04T11:19:05.019Z,93.97
2019-03-04T11:24:09.423Z,89.28
2019-03-04T11:29:13.429Z,90.09
2019-03-04T11:34:16.922Z,90.76
2019-03-04T11:39:24.331Z,87.98
2019-03-04T11:44:27.749Z,85.83
2019-03-04T11:49:31.175Z,86.06
2019-03-04T11:54:34.617Z,83.17
2019-03-04T11:59:38.070Z,83.93
2019-03-04T12:04:41.492Z,85.22
2019-03-04T12:09:44.904Z,89.71
2019-03-04T12:14:48.315Z,95.84
2019-03-04T12:19:51.738Z,98.57
2019-03-04T12:24:55.159Z,100.00
2019-03-04T12:29:58.569Z,100.00
2019-03-04T12:35:03.020Z,99.02
2019-03-04T12:40:09.657Z,99.48
2019-03-04T12:45:15.133Z,95.19
2019-03-04T12:50:29.226Z,91.69
2019-03-04T12:55:32.733Z,87.73
2019-03-04T13:00:36.497Z,87.67
2019-03-04T13:05:39.922Z,87.79
2019-03-04T13:10:43.333Z,85.01
2019-03-04T13:15:46.847Z,86.41
2019-03-04T13:20:50.264Z,85.60
2019-03-04T13:25:53.688Z,81.35
2019-03-04T13:30:57.130Z,82.72
2019-03-04T13:36:00.571Z,78.03
2019-03-04T13:41:04.238Z,76.53
2019-03-04T13:46:07.739Z,75.28
2019-03-04T13:51:11.151Z,73.29
2019-03-04T13:56:14.586Z,73.18
2019-03-04T14:01:18.012Z,72.46
2019-03-04T14:06:21.440Z,70.30
2019-03-04T14:11:24.941Z,69.68
2019-03-04T14:16:28.437Z,69.09
2019-03-04T14:21:31.855Z,69.83
2019-03-04T14:26:35.300Z,67.53
2019-03-04T14:31:38.715Z,72.07
2019-03-04T14:36:42.133Z,71.06
2019-03-04T14:41:45.558Z,71.69
2019-03-04T14:46:48.969Z,70.37
2019-03-04T14:51:52.412Z,70.44
2019-03-04T14:56:55.825Z,70.76
2019-03-04T15:01:59.397Z,71.13
2019-03-04T15:07:02.809Z,69.52
2019-03-04T15:12:06.306Z,69.53
2019-03-04T15:17:12.785Z,69.63
2019-03-04T15:22:16.197Z,68.93
2019-03-04T15:27:19.688Z,67.61
2019-03-04T15:32:23.097Z,65.30
2019-03-04T15:37:26.532Z,64.45
2019-03-04T15:42:29.978Z,67.01
2019-03-04T15:47:33.382Z,65.79
2019-03-04T15:52:36.801Z,64.99
2019-03-04T15:57:40.310Z,62.31
2019-03-04T16:02:43.796Z,64.07
2019-03-04T16:07:47.265Z,64.65
2019-03-04T16:12:51.324Z,65.01
2019-03-04T16:17:54.813Z,66.48
2019-03-04T16:22:58.246Z,66.80
2019-03-04T16:28:13.727Z,65.74
2019-03-04T16:33:17.622Z,66.72
2019-03-04T16:38:21.177Z,67.22
2019-03-04T16:43:24.612Z,68.53
2019-03-04T16:48:28.028Z,67.90
2019-03-04T16:53:33.670Z,68.49
2019-03-04T16:58:37.069Z,69.59
2019-03-04T17:03:40.488Z,69.28
2019-03-04T17:08:43.899Z,69.40
2019-03-04T17:13:47.401Z,69.37
2019-03-04T17:18:50.878Z,70.42
2019-03-04T17:23:54.376Z,68.69
2019-03-04T17:28:57.799Z,70.11
2019-03-04T17:34:01.472Z,70.82
2019-03-04T17:39:06.625Z,69.87
2019-03-04T17:44:10.099Z,69.77
2019-03-04T17:49:13.512Z,69.43
2019-03-04T17:54:16.953Z,69.70
2019-03-04T17:59:20.381Z,69.59
2019-03-04T18:04:23.950Z,68.82
2019-03-04T18:09:27.492Z,69.12
2019-03-04T18:14:30.922Z,70.19
2019-03-04T18:19:34.346Z,70.07
2019-03-04T18:24:37.763Z,72.27
2019-03-04T18:29:50.218Z,71.98
2019-03-04T18:35:31.595Z,71.68
2019-03-04T18:40:40.772Z,72.88
2019-03-04T18:46:06.735Z,73.66
2019-03-04T18:51:10.175Z,73.18
2019-03-04T18:56:21.748Z,74.00
2019-03-04T19:01:19.050Z,73.67
2019-03-04T19:06:22.473Z,74.73
2019-03-04T19:11:25.897Z,74.24
2019-03-04T19:16:29.333Z,73.43
2019-03-04T19:21:33.649Z,73.26
2019-03-04T19:26:37.053Z,72.75
2019-03-04T19:31:40.554Z,72.38
2019-03-04T19:36:43.988Z,71.32
2019-03-04T19:41:47.405Z,71.60
2019-03-04T19:46:50.833Z,70.87
2019-03-04T19:51:54.250Z,71.49
2019-03-04T19:56:57.749Z,71.99
2019-03-04T20:02:02.217Z,71.96
2019-03-04T20:07:05.879Z,70.92
2019-03-04T20:12:09.359Z,71.63
2019-03-04T20:17:12.786Z,72.24
2019-03-04T20:22:16.210Z,72.40
2019-03-04T20:27:19.653Z,72.66
2019-03-04T20:32:23.118Z,72.79
2019-03-04T20:37:26.816Z,71.38
2019-03-04T20:42:30.250Z,71.90
2019-03-04T20:47:33.667Z,71.21
2019-03-04T20:52:37.144Z,71.75
2019-03-04T20:57:40.573Z,71.09
2019-03-04T21:02:44.062Z,72.00
2019-03-04T21:07:47.561Z,71.17
2019-03-04T21:12:52.173Z,72.56
2019-03-04T21:17:55.846Z,72.23
2019-03-04T21:22:59.285Z,72.91
2019-03-04T21:28:11.324Z,73.81
2019-03-04T21:33:14.893Z,75.41
2019-03-04T21:38:18.738Z,75.54
2019-03-04T21:43:25.317Z,75.18
2019-03-04T21:48:34.274Z,75.39
2019-03-04T21:53:43.627Z,75.93
2019-03-04T21:58:47.037Z,75.54
2019-03-04T22:03:50.479Z,75.92
2019-03-04T22:08:53.926Z,77.52
2019-03-04T22:13:57.410Z,80.60
2019-03-04T22:19:01.001Z,79.71
2019-03-04T22:24:04.510Z,79.64
2019-03-04T22:29:07.961Z,79.11
2019-03-04T22:34:11.400Z,79.31
2019-03-04T22:39:14.821Z,82.63
2019-03-04T22:44:18.242Z,87.17
2019-03-04T22:49:21.626Z,89.65
2019-03-04T22:54:25.052Z,91.95
2019-03-04T22:59:28.457Z,93.70
2019-03-04T23:04:32.017Z,97.71
2019-03-04T23:09:48.335Z,99.90
2019-03-04T23:14:52.078Z,100.00
2019-03-04T23:19:55.553Z,100.00
2019-03-04T23:24:58.957Z,100.00
2019-03-04T23:30:02.391Z,100.00
2019-03-04T23:35:05.924Z,100.00
2019-03-04T23:40:11.348Z,100.00
2019-03-04T23:45:14.898Z,100.00
2019-03-04T23:50:20.355Z,100.00
2019-03-04T23:55:23.764Z,100.00
